Terminal Aerodrome Forecast
Issued by NWS Corpus Christi, TX

Current Version | Previous Version | Text Only | Print | Product List | Glossary Off
Versions: 1 2 3 4 5 6 7 8 9 10 11 12 13 14 15 16 17 18 19 20

000
FTUS44 KCRP 291740
TAFCRP
TAF
KCRP 291740Z 2918/3018 13014G22KT P6SM FEW035
     FM300200 15012KT P6SM FEW020
     FM300800 17004KT P6SM SCT015
      TEMPO 3012/3016 5SM BR BKN015
     FM301600 15010KT P6SM SCT030=

USA.gov is the U.S. government's official web portal to all federal, state and local government web resources and services.